sensor_id;sensor_type;location;lat;lon;timestamp;P1;durP1;ratioP1;P2;durP2;ratioP2
78887;SDS011;68276;49.326;8.690;2023-07-28T00:02:31;6.22;;;1.83;;
78887;SDS011;68276;49.326;8.690;2023-07-28T00:04:56;7.20;;;1.80;;
78887;SDS011;68276;49.326;8.690;2023-07-28T00:09:47;5.57;;;1.67;;
78887;SDS011;68276;49.326;8.690;2023-07-28T00:12:12;6.97;;;1.80;;
78887;SDS011;68276;49.326;8.690;2023-07-28T00:14:38;6.50;;;1.95;;
78887;SDS011;68276;49.326;8.690;2023-07-28T00:17:03;5.43;;;1.60;;
78887;SDS011;68276;49.326;8.690;2023-07-28T00:19:29;5.47;;;1.83;;
78887;SDS011;68276;49.326;8.690;2023-07-28T00:21:54;7.82;;;2.13;;
78887;SDS011;68276;49.326;8.690;2023-07-28T00:24:21;5.47;;;1.83;;
78887;SDS011;68276;49.326;8.690;2023-07-28T00:26:46;7.28;;;1.63;;
78887;SDS011;68276;49.326;8.690;2023-07-28T00:29:12;8.37;;;2.00;;
78887;SDS011;68276;49.326;8.690;2023-07-28T00:31:37;5.88;;;1.88;;
78887;SDS011;68276;49.326;8.690;2023-07-28T00:34:02;5.20;;;1.80;;
78887;SDS011;68276;49.326;8.690;2023-07-28T00:38:54;6.72;;;1.80;;
78887;SDS011;68276;49.326;8.690;2023-07-28T00:41:20;7.03;;;2.00;;
78887;SDS011;68276;49.326;8.690;2023-07-28T00:43:45;8.05;;;1.77;;
78887;SDS011;68276;49.326;8.690;2023-07-28T00:46:10;5.87;;;1.90;;
78887;SDS011;68276;49.326;8.690;2023-07-28T00:48:37;5.85;;;1.80;;
78887;SDS011;68276;49.326;8.690;2023-07-28T00:51:04;6.20;;;1.98;;
78887;SDS011;68276;49.326;8.690;2023-07-28T00:53:31;6.20;;;1.90;;
78887;SDS011;68276;49.326;8.690;2023-07-28T00:55:57;8.25;;;1.80;;
78887;SDS011;68276;49.326;8.690;2023-07-28T00:59:16;6.75;;;1.80;;
78887;SDS011;68276;49.326;8.690;2023-07-28T01:01:41;5.80;;;1.70;;
78887;SDS011;68276;49.326;8.690;2023-07-28T01:04:07;7.28;;;1.85;;
78887;SDS011;68276;49.326;8.690;2023-07-28T01:06:37;6.33;;;2.00;;
78887;SDS011;68276;49.326;8.690;2023-07-28T01:09:13;7.05;;;2.00;;
78887;SDS011;68276;49.326;8.690;2023-07-28T01:11:54;6.20;;;1.90;;
78887;SDS011;68276;49.326;8.690;2023-07-28T01:14:20;6.82;;;1.67;;
78887;SDS011;68276;49.326;8.690;2023-07-28T01:16:46;5.72;;;2.00;;
78887;SDS011;68276;49.326;8.690;2023-07-28T01:19:11;6.28;;;2.00;;
78887;SDS011;68276;49.326;8.690;2023-07-28T01:21:37;9.52;;;2.00;;
78887;SDS011;68276;49.326;8.690;2023-07-28T01:26:55;5.88;;;2.00;;
78887;SDS011;68276;49.326;8.690;2023-07-28T01:29:21;7.45;;;2.05;;
78887;SDS011;68276;49.326;8.690;2023-07-28T01:31:47;7.95;;;2.10;;
78887;SDS011;68276;49.326;8.690;2023-07-28T01:34:13;5.65;;;1.60;;
78887;SDS011;68276;49.326;8.690;2023-07-28T01:39:04;7.03;;;2.10;;
78887;SDS011;68276;49.326;8.690;2023-07-28T01:41:29;7.03;;;2.10;;
78887;SDS011;68276;49.326;8.690;2023-07-28T01:43:55;5.18;;;1.80;;
78887;SDS011;68276;49.326;8.690;2023-07-28T01:46:21;6.00;;;1.83;;
78887;SDS011;68276;49.326;8.690;2023-07-28T01:48:47;8.90;;;2.08;;
78887;SDS011;68276;49.326;8.690;2023-07-28T01:51:12;6.22;;;2.00;;
78887;SDS011;68276;49.326;8.690;2023-07-28T01:53:38;7.33;;;2.10;;
78887;SDS011;68276;49.326;8.690;2023-07-28T01:56:03;7.37;;;2.00;;
78887;SDS011;68276;49.326;8.690;2023-07-28T01:58:28;5.88;;;1.88;;
78887;SDS011;68276;49.326;8.690;2023-07-28T02:00:54;5.37;;;1.80;;
78887;SDS011;68276;49.326;8.690;2023-07-28T02:03:19;5.93;;;2.03;;
78887;SDS011;68276;49.326;8.690;2023-07-28T02:05:44;7.30;;;2.17;;
78887;SDS011;68276;49.326;8.690;2023-07-28T02:08:10;8.00;;;2.87;;
78887;SDS011;68276;49.326;8.690;2023-07-28T02:10:35;7.13;;;2.63;;
78887;SDS011;68276;49.326;8.690;2023-07-28T02:13:00;6.27;;;1.97;;
78887;SDS011;68276;49.326;8.690;2023-07-28T02:15:26;5.87;;;2.00;;
78887;SDS011;68276;49.326;8.690;2023-07-28T02:17:51;7.87;;;2.30;;
78887;SDS011;68276;49.326;8.690;2023-07-28T02:20:16;6.68;;;1.85;;
78887;SDS011;68276;49.326;8.690;2023-07-28T02:22:42;6.80;;;2.22;;
78887;SDS011;68276;49.326;8.690;2023-07-28T02:25:08;5.65;;;1.95;;
78887;SDS011;68276;49.326;8.690;2023-07-28T02:27:34;6.07;;;1.88;;
78887;SDS011;68276;49.326;8.690;2023-07-28T02:29:59;5.30;;;1.70;;
78887;SDS011;68276;49.326;8.690;2023-07-28T02:32:26;7.03;;;2.13;;
78887;SDS011;68276;49.326;8.690;2023-07-28T02:34:53;6.30;;;2.00;;
78887;SDS011;68276;49.326;8.690;2023-07-28T02:37:19;5.95;;;1.90;;
78887;SDS011;68276;49.326;8.690;2023-07-28T02:39:44;5.95;;;2.15;;
78887;SDS011;68276;49.326;8.690;2023-07-28T02:42:09;5.75;;;1.80;;
78887;SDS011;68276;49.326;8.690;2023-07-28T02:44:35;6.67;;;2.07;;
78887;SDS011;68276;49.326;8.690;2023-07-28T02:47:00;4.87;;;1.70;;
78887;SDS011;68276;49.326;8.690;2023-07-28T02:49:26;6.40;;;1.80;;
78887;SDS011;68276;49.326;8.690;2023-07-28T02:51:51;6.72;;;1.88;;
78887;SDS011;68276;49.326;8.690;2023-07-28T02:54:16;6.30;;;2.10;;
78887;SDS011;68276;49.326;8.690;2023-07-28T02:56:42;8.73;;;1.90;;
78887;SDS011;68276;49.326;8.690;2023-07-28T02:59:07;7.43;;;2.30;;
78887;SDS011;68276;49.326;8.690;2023-07-28T03:01:32;5.47;;;1.73;;
78887;SDS011;68276;49.326;8.690;2023-07-28T03:03:59;6.38;;;1.98;;
78887;SDS011;68276;49.326;8.690;2023-07-28T03:06:25;5.20;;;1.90;;
78887;SDS011;68276;49.326;8.690;2023-07-28T03:08:50;7.95;;;1.95;;
78887;SDS011;68276;49.326;8.690;2023-07-28T03:11:16;6.00;;;1.90;;
78887;SDS011;68276;49.326;8.690;2023-07-28T03:13:41;5.60;;;1.77;;
78887;SDS011;68276;49.326;8.690;2023-07-28T03:16:06;5.93;;;2.00;;
78887;SDS011;68276;49.326;8.690;2023-07-28T03:18:32;6.97;;;1.90;;
78887;SDS011;68276;49.326;8.690;2023-07-28T03:20:57;6.67;;;2.17;;
78887;SDS011;68276;49.326;8.690;2023-07-28T03:23:22;6.17;;;1.90;;
78887;SDS011;68276;49.326;8.690;2023-07-28T03:25:48;9.87;;;2.03;;
78887;SDS011;68276;49.326;8.690;2023-07-28T03:28:13;6.33;;;2.10;;
78887;SDS011;68276;49.326;8.690;2023-07-28T03:30:38;7.55;;;2.25;;
78887;SDS011;68276;49.326;8.690;2023-07-28T03:33:04;7.37;;;2.00;;
78887;SDS011;68276;49.326;8.690;2023-07-28T03:35:29;6.10;;;2.00;;
78887;SDS011;68276;49.326;8.690;2023-07-28T03:37:55;6.90;;;1.93;;
78887;SDS011;68276;49.326;8.690;2023-07-28T03:40:20;7.40;;;2.40;;
78887;SDS011;68276;49.326;8.690;2023-07-28T03:42:46;6.70;;;2.17;;
78887;SDS011;68276;49.326;8.690;2023-07-28T03:45:11;7.15;;;2.15;;
78887;SDS011;68276;49.326;8.690;2023-07-28T03:47:37;5.95;;;1.95;;
78887;SDS011;68276;49.326;8.690;2023-07-28T03:50:04;6.85;;;1.95;;
78887;SDS011;68276;49.326;8.690;2023-07-28T03:52:30;7.60;;;2.00;;
78887;SDS011;68276;49.326;8.690;2023-07-28T03:54:55;5.57;;;1.80;;
78887;SDS011;68276;49.326;8.690;2023-07-28T03:57:21;7.90;;;2.03;;
78887;SDS011;68276;49.326;8.690;2023-07-28T03:59:46;6.28;;;1.95;;
78887;SDS011;68276;49.326;8.690;2023-07-28T04:02:12;8.20;;;2.30;;
78887;SDS011;68276;49.326;8.690;2023-07-28T04:04:37;7.85;;;2.05;;
78887;SDS011;68276;49.326;8.690;2023-07-28T04:07:02;5.93;;;2.03;;
78887;SDS011;68276;49.326;8.690;2023-07-28T04:09:31;5.85;;;1.95;;
78887;SDS011;68276;49.326;8.690;2023-07-28T04:11:56;7.37;;;2.10;;
78887;SDS011;68276;49.326;8.690;2023-07-28T04:14:21;6.43;;;1.93;;
78887;SDS011;68276;49.326;8.690;2023-07-28T04:16:47;5.93;;;1.93;;
78887;SDS011;68276;49.326;8.690;2023-07-28T04:19:12;6.70;;;1.80;;
78887;SDS011;68276;49.326;8.690;2023-07-28T04:21:37;6.55;;;1.65;;
78887;SDS011;68276;49.326;8.690;2023-07-28T04:24:06;6.72;;;2.03;;
78887;SDS011;68276;49.326;8.690;2023-07-28T04:26:33;6.60;;;2.15;;
78887;SDS011;68276;49.326;8.690;2023-07-28T04:28:58;10.35;;;2.30;;
78887;SDS011;68276;49.326;8.690;2023-07-28T04:31:24;6.07;;;1.90;;
78887;SDS011;68276;49.326;8.690;2023-07-28T04:33:49;6.10;;;1.70;;
78887;SDS011;68276;49.326;8.690;2023-07-28T04:36:15;5.27;;;1.73;;
78887;SDS011;68276;49.326;8.690;2023-07-28T04:38:40;8.77;;;2.23;;
78887;SDS011;68276;49.326;8.690;2023-07-28T04:41:05;5.90;;;1.80;;
78887;SDS011;68276;49.326;8.690;2023-07-28T04:43:31;7.10;;;2.00;;
78887;SDS011;68276;49.326;8.690;2023-07-28T04:45:56;6.10;;;1.80;;
78887;SDS011;68276;49.326;8.690;2023-07-28T04:48:21;5.60;;;1.70;;
78887;SDS011;68276;49.326;8.690;2023-07-28T04:50:47;6.57;;;1.90;;
78887;SDS011;68276;49.326;8.690;2023-07-28T04:53:12;6.77;;;1.63;;
78887;SDS011;68276;49.326;8.690;2023-07-28T04:55:37;6.03;;;1.63;;
78887;SDS011;68276;49.326;8.690;2023-07-28T04:58:03;6.70;;;1.70;;
78887;SDS011;68276;49.326;8.690;2023-07-28T05:00:28;6.97;;;1.60;;
78887;SDS011;68276;49.326;8.690;2023-07-28T05:02:54;4.72;;;1.48;;
78887;SDS011;68276;49.326;8.690;2023-07-28T05:05:19;6.15;;;1.65;;
78887;SDS011;68276;49.326;8.690;2023-07-28T05:07:45;5.03;;;1.75;;
78887;SDS011;68276;49.326;8.690;2023-07-28T05:10:10;6.20;;;1.77;;
78887;SDS011;68276;49.326;8.690;2023-07-28T05:12:36;6.00;;;1.70;;
78887;SDS011;68276;49.326;8.690;2023-07-28T05:15:01;6.57;;;1.83;;
78887;SDS011;68276;49.326;8.690;2023-07-28T05:17:27;5.38;;;1.50;;
78887;SDS011;68276;49.326;8.690;2023-07-28T05:19:52;5.53;;;1.60;;
78887;SDS011;68276;49.326;8.690;2023-07-28T05:22:17;6.87;;;1.70;;
78887;SDS011;68276;49.326;8.690;2023-07-28T05:24:43;6.87;;;1.80;;
78887;SDS011;68276;49.326;8.690;2023-07-28T05:27:09;4.93;;;1.33;;
78887;SDS011;68276;49.326;8.690;2023-07-28T05:29:35;4.50;;;1.40;;
78887;SDS011;68276;49.326;8.690;2023-07-28T05:32:00;4.93;;;1.50;;
78887;SDS011;68276;49.326;8.690;2023-07-28T05:34:26;6.20;;;1.40;;
78887;SDS011;68276;49.326;8.690;2023-07-28T05:36:52;6.43;;;1.67;;
78887;SDS011;68276;49.326;8.690;2023-07-28T05:39:17;6.17;;;1.70;;
78887;SDS011;68276;49.326;8.690;2023-07-28T05:41:43;5.60;;;1.67;;
78887;SDS011;68276;49.326;8.690;2023-07-28T05:44:08;5.13;;;1.50;;
78887;SDS011;68276;49.326;8.690;2023-07-28T05:46:34;4.43;;;1.53;;
78887;SDS011;68276;49.326;8.690;2023-07-28T05:48:59;6.70;;;1.43;;
78887;SDS011;68276;49.326;8.690;2023-07-28T05:51:24;5.43;;;1.60;;
78887;SDS011;68276;49.326;8.690;2023-07-28T05:53:50;5.22;;;1.63;;
78887;SDS011;68276;49.326;8.690;2023-07-28T05:56:15;5.63;;;1.70;;
78887;SDS011;68276;49.326;8.690;2023-07-28T05:58:41;7.22;;;1.77;;
78887;SDS011;68276;49.326;8.690;2023-07-28T06:01:06;6.57;;;2.40;;
78887;SDS011;68276;49.326;8.690;2023-07-28T06:03:32;7.00;;;2.00;;
78887;SDS011;68276;49.326;8.690;2023-07-28T06:05:58;7.93;;;1.92;;
78887;SDS011;68276;49.326;8.690;2023-07-28T06:08:23;9.13;;;2.15;;
78887;SDS011;68276;49.326;8.690;2023-07-28T06:10:48;9.55;;;1.98;;
78887;SDS011;68276;49.326;8.690;2023-07-28T06:13:14;7.43;;;2.35;;
78887;SDS011;68276;49.326;8.690;2023-07-28T06:15:40;9.48;;;2.33;;
78887;SDS011;68276;49.326;8.690;2023-07-28T06:18:06;7.10;;;2.28;;
78887;SDS011;68276;49.326;8.690;2023-07-28T06:20:32;7.45;;;2.50;;
78887;SDS011;68276;49.326;8.690;2023-07-28T06:22:57;7.50;;;2.30;;
78887;SDS011;68276;49.326;8.690;2023-07-28T06:25:23;8.02;;;2.20;;
78887;SDS011;68276;49.326;8.690;2023-07-28T06:27:48;8.95;;;2.40;;
78887;SDS011;68276;49.326;8.690;2023-07-28T06:30:13;9.47;;;2.20;;
78887;SDS011;68276;49.326;8.690;2023-07-28T06:32:39;6.70;;;2.20;;
78887;SDS011;68276;49.326;8.690;2023-07-28T06:35:05;7.43;;;2.20;;
78887;SDS011;68276;49.326;8.690;2023-07-28T06:37:32;8.77;;;2.22;;
78887;SDS011;68276;49.326;8.690;2023-07-28T06:39:58;7.95;;;2.30;;
78887;SDS011;68276;49.326;8.690;2023-07-28T06:42:24;6.75;;;2.15;;
78887;SDS011;68276;49.326;8.690;2023-07-28T06:44:50;6.45;;;2.15;;
78887;SDS011;68276;49.326;8.690;2023-07-28T06:47:16;7.00;;;1.92;;
78887;SDS011;68276;49.326;8.690;2023-07-28T06:49:42;5.68;;;1.83;;
78887;SDS011;68276;49.326;8.690;2023-07-28T06:52:07;7.05;;;1.98;;
78887;SDS011;68276;49.326;8.690;2023-07-28T06:54:33;6.68;;;1.73;;
78887;SDS011;68276;49.326;8.690;2023-07-28T06:56:59;8.43;;;2.30;;
78887;SDS011;68276;49.326;8.690;2023-07-28T06:59:24;5.78;;;1.83;;
78887;SDS011;68276;49.326;8.690;2023-07-28T07:01:49;7.87;;;1.77;;
78887;SDS011;68276;49.326;8.690;2023-07-28T07:04:15;5.57;;;1.87;;
78887;SDS011;68276;49.326;8.690;2023-07-28T07:06:41;5.25;;;1.63;;
78887;SDS011;68276;49.326;8.690;2023-07-28T07:09:06;6.27;;;1.70;;
78887;SDS011;68276;49.326;8.690;2023-07-28T07:11:31;5.25;;;1.70;;
78887;SDS011;68276;49.326;8.690;2023-07-28T07:13:57;4.95;;;1.50;;
78887;SDS011;68276;49.326;8.690;2023-07-28T07:16:22;5.33;;;1.60;;
78887;SDS011;68276;49.326;8.690;2023-07-28T07:18:48;5.05;;;1.40;;
78887;SDS011;68276;49.326;8.690;2023-07-28T07:21:13;4.73;;;1.47;;
78887;SDS011;68276;49.326;8.690;2023-07-28T07:23:38;5.53;;;1.70;;
78887;SDS011;68276;49.326;8.690;2023-07-28T07:26:04;4.80;;;1.30;;
78887;SDS011;68276;49.326;8.690;2023-07-28T07:28:29;5.67;;;1.70;;
78887;SDS011;68276;49.326;8.690;2023-07-28T07:30:55;5.23;;;1.50;;
78887;SDS011;68276;49.326;8.690;2023-07-28T07:33:20;4.72;;;1.60;;
78887;SDS011;68276;49.326;8.690;2023-07-28T07:35:46;4.80;;;1.45;;
78887;SDS011;68276;49.326;8.690;2023-07-28T07:38:11;6.28;;;1.75;;
78887;SDS011;68276;49.326;8.690;2023-07-28T07:40:37;4.63;;;1.40;;
78887;SDS011;68276;49.326;8.690;2023-07-28T07:43:04;6.60;;;1.55;;
78887;SDS011;68276;49.326;8.690;2023-07-28T07:45:30;5.70;;;1.80;;
78887;SDS011;68276;49.326;8.690;2023-07-28T07:47:55;5.40;;;1.77;;
78887;SDS011;68276;49.326;8.690;2023-07-28T07:50:21;5.60;;;1.50;;
78887;SDS011;68276;49.326;8.690;2023-07-28T07:52:47;5.60;;;1.70;;
78887;SDS011;68276;49.326;8.690;2023-07-28T07:55:12;6.10;;;1.58;;
78887;SDS011;68276;49.326;8.690;2023-07-28T07:57:38;4.97;;;1.42;;
78887;SDS011;68276;49.326;8.690;2023-07-28T08:00:04;5.30;;;1.40;;
78887;SDS011;68276;49.326;8.690;2023-07-28T08:04:56;4.87;;;1.60;;
78887;SDS011;68276;49.326;8.690;2023-07-28T08:07:21;4.60;;;1.43;;
78887;SDS011;68276;49.326;8.690;2023-07-28T08:09:48;5.38;;;1.60;;
78887;SDS011;68276;49.326;8.690;2023-07-28T08:12:13;5.68;;;1.60;;
78887;SDS011;68276;49.326;8.690;2023-07-28T08:14:40;5.40;;;1.60;;
78887;SDS011;68276;49.326;8.690;2023-07-28T08:17:05;4.77;;;1.60;;
78887;SDS011;68276;49.326;8.690;2023-07-28T08:19:30;4.07;;;1.55;;
78887;SDS011;68276;49.326;8.690;2023-07-28T08:21:56;4.17;;;1.23;;
78887;SDS011;68276;49.326;8.690;2023-07-28T08:24:21;4.82;;;1.45;;
78887;SDS011;68276;49.326;8.690;2023-07-28T08:26:47;4.57;;;1.50;;
78887;SDS011;68276;49.326;8.690;2023-07-28T08:29:12;5.63;;;1.50;;
78887;SDS011;68276;49.326;8.690;2023-07-28T08:34:03;3.90;;;1.23;;
78887;SDS011;68276;49.326;8.690;2023-07-28T08:36:28;4.13;;;1.27;;
78887;SDS011;68276;49.326;8.690;2023-07-28T08:41:19;5.07;;;1.60;;
78887;SDS011;68276;49.326;8.690;2023-07-28T08:43:45;5.57;;;1.60;;
78887;SDS011;68276;49.326;8.690;2023-07-28T08:48:36;5.35;;;1.50;;
78887;SDS011;68276;49.326;8.690;2023-07-28T08:51:02;5.50;;;1.50;;
78887;SDS011;68276;49.326;8.690;2023-07-28T08:53:29;6.28;;;1.50;;
78887;SDS011;68276;49.326;8.690;2023-07-28T08:55:55;4.53;;;1.33;;
78887;SDS011;68276;49.326;8.690;2023-07-28T08:58:21;4.55;;;1.40;;
78887;SDS011;68276;49.326;8.690;2023-07-28T09:00:49;4.88;;;1.40;;
78887;SDS011;68276;49.326;8.690;2023-07-28T09:03:15;5.45;;;1.52;;
78887;SDS011;68276;49.326;8.690;2023-07-28T09:05:45;4.57;;;1.60;;
78887;SDS011;68276;49.326;8.690;2023-07-28T09:08:12;3.97;;;1.30;;
78887;SDS011;68276;49.326;8.690;2023-07-28T09:10:45;4.10;;;1.50;;
78887;SDS011;68276;49.326;8.690;2023-07-28T09:13:16;3.90;;;1.40;;
78887;SDS011;68276;49.326;8.690;2023-07-28T09:15:42;7.40;;;1.50;;
78887;SDS011;68276;49.326;8.690;2023-07-28T09:20:38;4.57;;;1.40;;
78887;SDS011;68276;49.326;8.690;2023-07-28T09:23:04;6.32;;;1.65;;
78887;SDS011;68276;49.326;8.690;2023-07-28T09:25:30;5.43;;;1.38;;
78887;SDS011;68276;49.326;8.690;2023-07-28T09:27:57;5.53;;;1.40;;
78887;SDS011;68276;49.326;8.690;2023-07-28T09:32:49;4.88;;;1.33;;
78887;SDS011;68276;49.326;8.690;2023-07-28T09:35:16;4.75;;;1.40;;
78887;SDS011;68276;49.326;8.690;2023-07-28T09:37:43;4.97;;;1.40;;
78887;SDS011;68276;49.326;8.690;2023-07-28T09:40:11;4.82;;;1.60;;
78887;SDS011;68276;49.326;8.690;2023-07-28T09:42:41;3.95;;;1.25;;
78887;SDS011;68276;49.326;8.690;2023-07-28T09:45:07;4.97;;;1.48;;
78887;SDS011;68276;49.326;8.690;2023-07-28T09:47:34;5.15;;;1.63;;
78887;SDS011;68276;49.326;8.690;2023-07-28T09:50:06;3.58;;;1.15;;
78887;SDS011;68276;49.326;8.690;2023-07-28T09:52:43;5.75;;;1.20;;
78887;SDS011;68276;49.326;8.690;2023-07-28T09:55:12;3.72;;;1.30;;
78887;SDS011;68276;49.326;8.690;2023-07-28T09:57:50;5.32;;;1.42;;
78887;SDS011;68276;49.326;8.690;2023-07-28T10:00:17;3.88;;;1.30;;
78887;SDS011;68276;49.326;8.690;2023-07-28T10:02:44;4.85;;;1.30;;
78887;SDS011;68276;49.326;8.690;2023-07-28T10:05:10;5.18;;;1.27;;
78887;SDS011;68276;49.326;8.690;2023-07-28T10:10:05;4.88;;;1.35;;
78887;SDS011;68276;49.326;8.690;2023-07-28T10:12:42;3.70;;;1.20;;
78887;SDS011;68276;49.326;8.690;2023-07-28T10:15:12;3.80;;;1.20;;
78887;SDS011;68276;49.326;8.690;2023-07-28T10:17:43;4.57;;;1.60;;
78887;SDS011;68276;49.326;8.690;2023-07-28T10:20:32;4.45;;;1.30;;
78887;SDS011;68276;49.326;8.690;2023-07-28T10:23:04;3.35;;;1.17;;
78887;SDS011;68276;49.326;8.690;2023-07-28T10:25:36;3.97;;;1.25;;
78887;SDS011;68276;49.326;8.690;2023-07-28T10:28:03;4.47;;;1.20;;
78887;SDS011;68276;49.326;8.690;2023-07-28T10:30:34;4.28;;;1.30;;
78887;SDS011;68276;49.326;8.690;2023-07-28T10:33:02;3.88;;;1.20;;
78887;SDS011;68276;49.326;8.690;2023-07-28T10:37:56;4.13;;;1.30;;
78887;SDS011;68276;49.326;8.690;2023-07-28T10:42:58;4.45;;;1.25;;
78887;SDS011;68276;49.326;8.690;2023-07-28T10:47:52;6.85;;;1.70;;
78887;SDS011;68276;49.326;8.690;2023-07-28T10:50:20;4.68;;;1.35;;
78887;SDS011;68276;49.326;8.690;2023-07-28T10:55:12;5.32;;;1.40;;
78887;SDS011;68276;49.326;8.690;2023-07-28T10:57:41;4.82;;;1.17;;
78887;SDS011;68276;49.326;8.690;2023-07-28T11:00:08;5.38;;;1.38;;
78887;SDS011;68276;49.326;8.690;2023-07-28T11:02:38;4.45;;;1.20;;
78887;SDS011;68276;49.326;8.690;2023-07-28T11:05:09;5.45;;;1.20;;
78887;SDS011;68276;49.326;8.690;2023-07-28T11:07:37;3.65;;;1.20;;
78887;SDS011;68276;49.326;8.690;2023-07-28T11:10:03;5.30;;;1.25;;
78887;SDS011;68276;49.326;8.690;2023-07-28T11:12:31;7.10;;;1.48;;
78887;SDS011;68276;49.326;8.690;2023-07-28T11:17:23;6.18;;;1.33;;
78887;SDS011;68276;49.326;8.690;2023-07-28T11:19:49;4.35;;;1.20;;
78887;SDS011;68276;49.326;8.690;2023-07-28T11:24:42;6.43;;;1.58;;
78887;SDS011;68276;49.326;8.690;2023-07-28T11:29:33;4.57;;;1.27;;
78887;SDS011;68276;49.326;8.690;2023-07-28T11:34:24;4.23;;;1.30;;
78887;SDS011;68276;49.326;8.690;2023-07-28T11:36:49;4.33;;;1.40;;
78887;SDS011;68276;49.326;8.690;2023-07-28T11:39:16;4.28;;;1.30;;
78887;SDS011;68276;49.326;8.690;2023-07-28T11:41:42;4.07;;;1.20;;
78887;SDS011;68276;49.326;8.690;2023-07-28T11:44:08;4.10;;;1.40;;
78887;SDS011;68276;49.326;8.690;2023-07-28T11:51:39;3.95;;;1.13;;
78887;SDS011;68276;49.326;8.690;2023-07-28T11:54:16;3.63;;;1.10;;
78887;SDS011;68276;49.326;8.690;2023-07-28T11:56:45;2.95;;;1.00;;
78887;SDS011;68276;49.326;8.690;2023-07-28T11:59:11;4.20;;;1.25;;
78887;SDS011;68276;49.326;8.690;2023-07-28T12:01:58;4.72;;;1.30;;
78887;SDS011;68276;49.326;8.690;2023-07-28T12:04:29;3.83;;;1.00;;
78887;SDS011;68276;49.326;8.690;2023-07-28T12:07:15;3.28;;;1.15;;
78887;SDS011;68276;49.326;8.690;2023-07-28T12:12:16;4.07;;;1.10;;
78887;SDS011;68276;49.326;8.690;2023-07-28T12:14:43;3.65;;;1.00;;
78887;SDS011;68276;49.326;8.690;2023-07-28T12:19:41;2.58;;;1.00;;
78887;SDS011;68276;49.326;8.690;2023-07-28T12:22:08;2.72;;;1.08;;
78887;SDS011;68276;49.326;8.690;2023-07-28T12:26:59;4.80;;;1.00;;
78887;SDS011;68276;49.326;8.690;2023-07-28T12:29:24;3.20;;;1.13;;
78887;SDS011;68276;49.326;8.690;2023-07-28T12:34:15;4.83;;;1.20;;
78887;SDS011;68276;49.326;8.690;2023-07-28T12:36:40;4.30;;;1.52;;
78887;SDS011;68276;49.326;8.690;2023-07-28T12:39:06;3.47;;;1.02;;
78887;SDS011;68276;49.326;8.690;2023-07-28T12:41:32;4.72;;;1.00;;
78887;SDS011;68276;49.326;8.690;2023-07-28T12:46:23;4.83;;;1.10;;
78887;SDS011;68276;49.326;8.690;2023-07-28T12:48:48;4.18;;;1.30;;
78887;SDS011;68276;49.326;8.690;2023-07-28T12:51:14;3.42;;;1.20;;
78887;SDS011;68276;49.326;8.690;2023-07-28T12:53:40;4.93;;;1.30;;
78887;SDS011;68276;49.326;8.690;2023-07-28T12:56:05;4.67;;;1.50;;
78887;SDS011;68276;49.326;8.690;2023-07-28T12:58:30;6.15;;;1.58;;
78887;SDS011;68276;49.326;8.690;2023-07-28T13:00:56;5.25;;;1.35;;
78887;SDS011;68276;49.326;8.690;2023-07-28T13:03:23;4.53;;;1.55;;
78887;SDS011;68276;49.326;8.690;2023-07-28T13:05:48;5.00;;;1.37;;
78887;SDS011;68276;49.326;8.690;2023-07-28T13:10:39;6.10;;;1.67;;
78887;SDS011;68276;49.326;8.690;2023-07-28T13:13:04;7.77;;;1.53;;
78887;SDS011;68276;49.326;8.690;2023-07-28T13:15:29;5.33;;;1.60;;
78887;SDS011;68276;49.326;8.690;2023-07-28T13:17:55;6.07;;;1.60;;
78887;SDS011;68276;49.326;8.690;2023-07-28T13:20:20;6.37;;;1.67;;
78887;SDS011;68276;49.326;8.690;2023-07-28T13:22:46;4.35;;;1.38;;
78887;SDS011;68276;49.326;8.690;2023-07-28T13:25:11;5.78;;;1.63;;
78887;SDS011;68276;49.326;8.690;2023-07-28T13:27:37;6.50;;;1.73;;
78887;SDS011;68276;49.326;8.690;2023-07-28T13:30:02;4.67;;;1.57;;
78887;SDS011;68276;49.326;8.690;2023-07-28T13:32:30;5.70;;;1.48;;
78887;SDS011;68276;49.326;8.690;2023-07-28T13:34:55;5.68;;;1.70;;
78887;SDS011;68276;49.326;8.690;2023-07-28T13:37:21;6.63;;;1.70;;
78887;SDS011;68276;49.326;8.690;2023-07-28T13:42:12;6.10;;;1.80;;
78887;SDS011;68276;49.326;8.690;2023-07-28T13:44:39;7.95;;;1.80;;
78887;SDS011;68276;49.326;8.690;2023-07-28T13:47:04;6.13;;;1.80;;
78887;SDS011;68276;49.326;8.690;2023-07-28T13:51:56;4.90;;;1.60;;
78887;SDS011;68276;49.326;8.690;2023-07-28T13:54:21;5.20;;;1.30;;
78887;SDS011;68276;49.326;8.690;2023-07-28T13:56:46;5.70;;;1.33;;
78887;SDS011;68276;49.326;8.690;2023-07-28T13:59:12;5.80;;;1.35;;
78887;SDS011;68276;49.326;8.690;2023-07-28T14:01:37;5.23;;;1.50;;
78887;SDS011;68276;49.326;8.690;2023-07-28T14:04:02;5.63;;;1.70;;
78887;SDS011;68276;49.326;8.690;2023-07-28T14:06:28;5.32;;;1.33;;
78887;SDS011;68276;49.326;8.690;2023-07-28T14:08:54;6.23;;;1.80;;
78887;SDS011;68276;49.326;8.690;2023-07-28T14:11:19;7.05;;;1.60;;
78887;SDS011;68276;49.326;8.690;2023-07-28T14:13:44;7.57;;;1.65;;
78887;SDS011;68276;49.326;8.690;2023-07-28T14:16:10;5.77;;;1.60;;
78887;SDS011;68276;49.326;8.690;2023-07-28T14:18:35;6.72;;;1.55;;
78887;SDS011;68276;49.326;8.690;2023-07-28T14:21:01;6.30;;;1.77;;
78887;SDS011;68276;49.326;8.690;2023-07-28T14:23:27;5.97;;;1.42;;
78887;SDS011;68276;49.326;8.690;2023-07-28T14:25:53;6.35;;;1.50;;
78887;SDS011;68276;49.326;8.690;2023-07-28T14:28:20;5.03;;;1.42;;
78887;SDS011;68276;49.326;8.690;2023-07-28T14:30:46;4.68;;;1.40;;
78887;SDS011;68276;49.326;8.690;2023-07-28T14:33:15;4.70;;;1.48;;
78887;SDS011;68276;49.326;8.690;2023-07-28T14:35:42;4.85;;;1.77;;
78887;SDS011;68276;49.326;8.690;2023-07-28T14:38:09;6.78;;;1.70;;
78887;SDS011;68276;49.326;8.690;2023-07-28T14:40:35;5.73;;;2.03;;
78887;SDS011;68276;49.326;8.690;2023-07-28T14:43:01;5.45;;;1.60;;
78887;SDS011;68276;49.326;8.690;2023-07-28T14:47:52;5.57;;;1.60;;
78887;SDS011;68276;49.326;8.690;2023-07-28T14:50:17;5.63;;;1.50;;
78887;SDS011;68276;49.326;8.690;2023-07-28T14:55:08;7.27;;;1.77;;
78887;SDS011;68276;49.326;8.690;2023-07-28T14:57:34;4.85;;;1.60;;
78887;SDS011;68276;49.326;8.690;2023-07-28T15:00:00;5.70;;;1.73;;
78887;SDS011;68276;49.326;8.690;2023-07-28T15:02:25;5.38;;;1.80;;
78887;SDS011;68276;49.326;8.690;2023-07-28T15:04:50;5.63;;;1.80;;
78887;SDS011;68276;49.326;8.690;2023-07-28T15:07:17;6.43;;;1.80;;
78887;SDS011;68276;49.326;8.690;2023-07-28T15:09:44;6.00;;;1.60;;
78887;SDS011;68276;49.326;8.690;2023-07-28T15:12:09;4.15;;;1.48;;
78887;SDS011;68276;49.326;8.690;2023-07-28T15:17:00;6.10;;;1.70;;
78887;SDS011;68276;49.326;8.690;2023-07-28T15:19:25;5.60;;;1.50;;
78887;SDS011;68276;49.326;8.690;2023-07-28T15:28:34;5.15;;;1.60;;
78887;SDS011;68276;49.326;8.690;2023-07-28T15:33:25;5.87;;;1.63;;
78887;SDS011;68276;49.326;8.690;2023-07-28T15:35:54;8.18;;;1.77;;
78887;SDS011;68276;49.326;8.690;2023-07-28T15:38:19;5.50;;;1.90;;
78887;SDS011;68276;49.326;8.690;2023-07-28T15:40:44;6.10;;;1.65;;
78887;SDS011;68276;49.326;8.690;2023-07-28T15:43:10;5.78;;;1.65;;
78887;SDS011;68276;49.326;8.690;2023-07-28T15:45:35;7.93;;;2.30;;
78887;SDS011;68276;49.326;8.690;2023-07-28T15:50:26;6.70;;;1.87;;
78887;SDS011;68276;49.326;8.690;2023-07-28T15:52:51;5.60;;;1.60;;
78887;SDS011;68276;49.326;8.690;2023-07-28T15:55:17;6.40;;;1.55;;
78887;SDS011;68276;49.326;8.690;2023-07-28T15:57:43;6.03;;;1.80;;
78887;SDS011;68276;49.326;8.690;2023-07-28T16:00:08;6.00;;;1.87;;
78887;SDS011;68276;49.326;8.690;2023-07-28T16:02:35;6.05;;;1.77;;
78887;SDS011;68276;49.326;8.690;2023-07-28T16:05:00;5.80;;;1.60;;
78887;SDS011;68276;49.326;8.690;2023-07-28T16:07:26;5.25;;;1.70;;
78887;SDS011;68276;49.326;8.690;2023-07-28T16:09:52;6.90;;;1.55;;
78887;SDS011;68276;49.326;8.690;2023-07-28T16:12:17;5.30;;;1.45;;
78887;SDS011;68276;49.326;8.690;2023-07-28T16:17:08;5.20;;;1.60;;